Current Weather

Bicycle Lake Aaf

Fort Irwin/Barstow, California (KBYS)

Report from: Thursday, July 18, 2024 6:55 AM PDT
Current time: Thursday, July 18, 2024 7:21 AM PDT

Nearby weather – Weather history – Daily summaries
Weather forecast

Temperature29.1°C (84.4°F)
Heat index27.9°C (82.2°F)
Dew point7.6°C (45.7°F)
Winds Calm
Visibility10 mi. (16.1 km)
Clouds Few clouds 20,000 ft. (6,096 m)
Altimeter29.95 in.Hg (1014 mB)
Relative humidity26 %
Density altitude1,864 ft. (568 m)
Sea-level pressure101.1 kPa (1011 mB, 29.84 in.Hg)
Remarks Fully automated report
System requires maintenance
Automated weather observing station with precipitation discriminator
Flight conditions Visual Meteorological Conditions
Raw dataKBYS 181355Z AUTO 00000KT 10SM FEW200 29/08 A2995 RMK AO2 SLP105 T02910076 $
An error has occurred. This application may no longer respond until reloaded. Reload 🗙